Time;durP1;ratioP1;P1;durP2;ratioP2;P2;SDS_P1;SDS_P2;PMS_P1;PMS_P2;Temp;Humidity;BMP_temperature;BMP_pressure;BME280_temperature;BME280_humidity;BME280_pressure;Samples;Min_cycle;Max_cycle;Signal;HPM_P1;HPM_P2
2023/06/09 00:00:17;;;;;;;7.88;6.13;;;;;;;20.51;53.36;100255.22;4165734;28;20140;-61
2023/06/09 00:02:22;;;;;;;10.30;6.80;;;;;;;20.55;53.46;100250.72;4148257;28;20510;-60
2023/06/09 00:04:26;;;;;;;9.80;6.45;;;;;;;20.53;53.63;100247.25;4165375;28;20221;-61
2023/06/09 00:06:30;;;;;;;8.65;6.10;;;;;;;20.45;53.95;100246.63;4165618;28;20045;-61
2023/06/09 00:08:33;;;;;;;7.82;6.45;;;;;;;20.42;54.15;100237.03;4165603;28;20051;-61
2023/06/09 00:10:36;;;;;;;8.90;6.53;;;;;;;20.43;54.57;100249.34;4165517;28;20042;-61
2023/06/09 00:12:41;;;;;;;8.52;5.40;;;;;;;20.43;54.54;100244.06;4148025;28;20538;-60
2023/06/09 00:14:44;;;;;;;7.32;5.88;;;;;;;20.45;54.74;100254.56;4165276;28;20041;-61
2023/06/09 00:16:47;;;;;;;9.93;6.15;;;;;;;20.44;54.58;100247.53;4165443;28;20053;-61
2023/06/09 00:18:51;;;;;;;9.05;5.93;;;;;;;20.42;54.81;100260.78;4147925;28;20034;-61
2023/06/09 00:20:54;;;;;;;8.45;5.40;;;;;;;20.36;54.85;100260.97;4165343;28;20064;-61
2023/06/09 00:22:58;;;;;;;7.63;6.05;;;;;;;20.34;55.03;100257.50;4165333;28;20407;-61
2023/06/09 00:25:01;;;;;;;17.55;5.75;;;;;;;20.32;54.98;100264.63;4165140;28;20033;-61
2023/06/09 00:27:06;;;;;;;8.50;5.68;;;;;;;20.27;55.22;100263.88;4147645;28;20100;-60
2023/06/09 00:29:11;;;;;;;7.85;5.53;;;;;;;20.25;55.46;100263.06;4131435;28;20145;-61
2023/06/09 00:31:14;;;;;;;7.95;6.60;;;;;;;20.20;55.53;100258.78;4164097;28;20434;-61
2023/06/09 00:33:18;;;;;;;9.77;6.50;;;;;;;20.18;55.79;100257.97;4163941;28;20041;-60
2023/06/09 00:35:22;;;;;;;9.73;6.85;;;;;;;20.16;56.06;100246.56;4147441;28;20116;-61
2023/06/09 00:37:24;;;;;;;7.55;5.78;;;;;;;20.14;56.04;100250.19;4165078;28;20041;-61
2023/06/09 00:39:27;;;;;;;13.02;6.32;;;;;;;20.11;56.24;100252.91;4163999;28;20132;-61
2023/06/09 00:41:30;;;;;;;7.93;6.25;;;;;;;20.10;56.62;100254.69;4147574;28;20096;-61
2023/06/09 00:43:33;;;;;;;7.28;5.47;;;;;;;20.06;56.49;100247.75;4165026;28;20514;-60
2023/06/09 00:45:37;;;;;;;8.90;5.70;;;;;;;20.03;56.91;100251.38;4147293;28;20069;-60
2023/06/09 00:47:41;;;;;;;9.27;6.78;;;;;;;20.01;56.87;100254.94;4164118;28;20453;-61
2023/06/09 00:49:44;;;;;;;11.00;6.40;;;;;;;20.02;57.00;100251.41;4163877;28;20177;-61
2023/06/09 00:51:48;;;;;;;9.05;6.93;;;;;;;19.99;57.32;100249.72;4163800;28;20037;-60
2023/06/09 00:53:51;;;;;;;11.40;6.90;;;;;;;19.99;56.90;100246.19;4146937;28;20462;-61
2023/06/09 00:55:54;;;;;;;8.80;6.82;;;;;;;19.92;57.09;100247.25;4147405;28;20089;-60
2023/06/09 00:57:58;;;;;;;10.05;7.00;;;;;;;19.88;57.10;100257.91;4147212;28;20100;-61
2023/06/09 01:00:01;;;;;;;11.38;7.47;;;;;;;19.84;57.32;100258.94;4147311;28;20045;-61
2023/06/09 01:02:08;;;;;;;10.45;6.65;;;;;;;19.90;57.25;100255.22;4163618;28;20129;-61
2023/06/09 01:04:12;;;;;;;8.70;7.18;;;;;;;19.94;57.11;100254.25;4137189;28;20038;-60
2023/06/09 01:06:23;;;;;;;10.73;7.60;;;;;;;19.87;57.27;100252.69;4147293;28;20507;-60
2023/06/09 01:08:34;;;;;;;8.45;6.00;;;;;;;19.82;57.55;100258.09;4164735;28;20091;-60
2023/06/09 01:10:45;;;;;;;8.48;6.30;;;;;;;19.83;57.28;100259.81;4164754;28;20065;-61
2023/06/09 01:12:57;;;;;;;9.75;6.60;;;;;;;19.77;58.05;100254.69;4147069;28;20041;-61
2023/06/09 01:15:07;;;;;;;8.82;6.85;;;;;;;19.79;58.13;100254.69;4164393;28;20051;-60
2023/06/09 01:17:18;;;;;;;8.57;6.85;;;;;;;19.80;57.66;100261.66;4147027;28;20129;-60
2023/06/09 01:19:33;;;;;;;10.90;6.63;;;;;;;19.79;58.18;100252.91;4164544;28;20495;-60
2023/06/09 01:21:44;;;;;;;10.10;7.50;;;;;;;19.79;58.06;100255.53;4130747;28;20515;-61
2023/06/09 01:24:04;;;;;;;8.32;6.82;;;;;;;19.75;58.03;100251.22;4146692;28;20038;-60
2023/06/09 01:26:09;;;;;;;9.23;6.47;;;;;;;19.71;57.87;100242.53;4147004;28;20050;-61
2023/06/09 01:28:16;;;;;;;10.05;6.90;;;;;;;19.74;57.42;100246.84;4163160;28;20414;-61
2023/06/09 01:30:21;;;;;;;10.55;7.32;;;;;;;19.70;57.60;100251.34;4163214;28;20033;-61
2023/06/09 01:32:25;;;;;;;9.02;6.82;;;;;;;19.69;57.74;100243.47;4144941;28;20042;-61
2023/06/09 01:34:29;;;;;;;8.38;5.95;;;;;;;19.67;57.90;100240.88;4155928;28;20069;-61
2023/06/09 01:36:33;;;;;;;8.57;6.22;;;;;;;19.68;57.96;100247.00;4146858;28;20133;-61
2023/06/09 01:38:36;;;;;;;8.35;6.32;;;;;;;19.68;57.88;100250.53;4163114;28;20518;-61
2023/06/09 01:40:39;;;;;;;8.38;6.18;;;;;;;19.66;58.11;100247.03;4146747;28;20073;-61
2023/06/09 01:42:43;;;;;;;9.75;6.53;;;;;;;19.66;57.69;100248.84;4163020;28;20099;-62
2023/06/09 01:44:46;;;;;;;7.72;6.30;;;;;;;19.59;58.09;100242.00;4162748;28;20065;-60
2023/06/09 01:46:49;;;;;;;8.38;7.18;;;;;;;19.55;58.26;100241.19;4164201;28;20037;-60
2023/06/09 01:49:01;;;;;;;9.05;6.90;;;;;;;19.46;58.20;100244.94;4164120;28;20064;-61
2023/06/09 01:51:09;;;;;;;7.95;6.68;;;;;;;19.37;58.41;100245.19;4146640;28;20045;-61
2023/06/09 01:53:16;;;;;;;10.10;7.22;;;;;;;19.29;58.94;100245.38;4146548;28;20225;-60
2023/06/09 01:55:22;;;;;;;8.82;6.93;;;;;;;19.24;58.82;100241.13;4163895;28;20576;-61
2023/06/09 01:57:31;;;;;;;10.32;7.07;;;;;;;19.22;58.83;100246.44;4146596;28;20045;-61
2023/06/09 01:59:43;;;;;;;8.43;6.72;;;;;;;19.13;59.38;100251.94;4162788;28;20133;-61
2023/06/09 02:01:48;;;;;;;9.13;7.10;;;;;;;19.09;59.49;100243.25;4146600;28;20052;-61
2023/06/09 02:03:53;;;;;;;9.88;6.40;;;;;;;19.10;59.80;100244.09;4146326;28;20117;-61
2023/06/09 02:05:58;;;;;;;9.38;6.93;;;;;;;19.08;59.95;100241.50;4164007;28;20042;-60
2023/06/09 02:08:01;;;;;;;9.18;6.88;;;;;;;19.01;59.78;100239.91;4145142;28;20403;-61
2023/06/09 02:10:05;;;;;;;11.73;6.70;;;;;;;18.98;60.32;100240.00;4138732;28;20525;-61
2023/06/09 02:12:08;;;;;;;8.93;7.20;;;;;;;19.00;59.95;100246.09;4161087;28;20650;-61
2023/06/09 02:14:11;;;;;;;11.05;6.97;;;;;;;18.98;60.50;100246.16;4146172;28;20073;-60
2023/06/09 02:16:15;;;;;;;10.02;7.22;;;;;;;18.97;60.20;100240.91;4146471;28;20529;-60
2023/06/09 02:18:21;;;;;;;10.15;7.55;;;;;;;18.95;60.72;100240.94;4162805;28;20042;-60
2023/06/09 02:20:24;;;;;;;11.20;7.55;;;;;;;18.93;60.62;100241.88;4146542;28;20050;-60
2023/06/09 02:22:27;;;;;;;11.63;7.28;;;;;;;18.90;60.52;100237.56;4162767;28;20037;-61
2023/06/09 02:24:30;;;;;;;9.02;7.50;;;;;;;18.89;61.05;100240.22;4163607;28;20041;-60
2023/06/09 02:26:34;;;;;;;9.88;8.55;;;;;;;18.89;61.15;100234.94;4146310;28;20050;-60
2023/06/09 02:28:37;;;;;;;10.43;7.22;;;;;;;18.86;61.10;100229.72;4163866;28;20037;-60
2023/06/09 02:30:40;;;;;;;9.68;7.53;;;;;;;18.86;61.12;100233.25;4146320;28;20046;-60
2023/06/09 02:32:45;;;;;;;10.52;7.55;;;;;;;18.87;61.42;100234.13;4163802;28;20033;-60
2023/06/09 02:34:48;;;;;;;7.63;6.68;;;;;;;18.87;61.22;100227.09;4146074;28;20041;-60
2023/06/09 02:36:52;;;;;;;8.95;7.88;;;;;;;18.86;61.15;100222.72;4146364;28;20065;-60
2023/06/09 02:38:55;;;;;;;8.60;7.47;;;;;;;18.82;61.30;100229.81;4146314;28;20134;-60
2023/06/09 02:40:58;;;;;;;9.52;7.00;;;;;;;18.86;61.28;100235.00;4146303;28;20045;-60
2023/06/09 02:43:01;;;;;;;9.57;7.35;;;;;;;18.84;61.35;100233.25;4129925;28;20508;-60
2023/06/09 02:45:06;;;;;;;9.60;7.93;;;;;;;18.83;61.89;100230.66;4129739;28;20097;-60
2023/06/09 02:47:10;;;;;;;11.02;8.73;;;;;;;18.75;62.16;100233.47;4146209;28;20092;-60
2023/06/09 02:49:16;;;;;;;10.88;7.13;;;;;;;18.76;62.36;100236.97;4146212;28;20037;-60
2023/06/09 02:51:19;;;;;;;10.52;7.75;;;;;;;18.71;62.19;100234.44;4129952;28;20133;-60
2023/06/09 02:53:21;;;;;;;10.23;8.10;;;;;;;18.66;61.94;100231.94;4146030;28;20040;-61
2023/06/09 02:55:24;;;;;;;9.20;6.68;;;;;;;18.63;62.10;100231.13;4145898;28;20069;-60
2023/06/09 02:57:28;;;;;;;9.50;7.10;;;;;;;18.63;62.39;100234.63;4146226;28;20066;-60
2023/06/09 02:59:31;;;;;;;9.75;8.02;;;;;;;18.61;62.10;100233.78;4146118;28;20100;-60
2023/06/09 03:01:36;;;;;;;11.13;8.25;;;;;;;18.63;62.58;100229.38;4146181;28;20053;-60
2023/06/09 03:03:41;;;;;;;11.93;7.68;;;;;;;18.62;62.72;100232.88;4146064;28;20038;-60
2023/06/09 03:05:45;;;;;;;8.93;7.35;;;;;;;18.64;62.52;100230.22;4145981;28;20512;-60
2023/06/09 03:07:50;;;;;;;11.65;7.88;;;;;;;18.63;62.38;100232.00;4162446;28;20041;-60
2023/06/09 03:09:54;;;;;;;;;;;;;;;18.53;62.37;100242.75;4146541;28;20112;-60
2023/06/09 03:11:57;;;;;;;12.88;8.30;;;;;;;18.57;62.61;100239.16;4165344;28;20012;-60
2023/06/09 03:14:00;;;;;;;10.85;8.75;;;;;;;18.60;62.07;100244.34;4148571;28;20038;-60
2023/06/09 03:16:04;;;;;;;12.65;9.20;;;;;;;18.63;62.46;100233.75;4148931;28;20034;-61
2023/06/09 03:18:08;;;;;;;11.93;8.27;;;;;;;18.62;62.41;100239.94;4148898;28;20042;-60
2023/06/09 03:20:13;;;;;;;13.25;9.07;;;;;;;18.64;62.42;100240.75;4148944;28;20283;-60
2023/06/09 03:22:20;;;;;;;12.18;8.80;;;;;;;18.67;62.18;100245.94;4148828;28;20104;-60
2023/06/09 03:24:23;;;;;;;11.80;9.40;;;;;;;18.72;62.14;100240.56;4148454;28;20038;-60
2023/06/09 03:26:26;;;;;;;14.43;9.77;;;;;;;18.67;62.02;100245.94;4148734;28;20037;-60
2023/06/09 03:28:29;;;;;;;13.00;9.27;;;;;;;18.68;62.31;100247.69;4148704;28;20490;-60
2023/06/09 03:30:32;;;;;;;10.43;8.05;;;;;;;18.63;62.08;100242.53;4148647;28;20132;-60
2023/06/09 03:32:35;;;;;;;12.65;9.85;;;;;;;18.62;62.38;100246.06;4132410;28;20050;-60
2023/06/09 03:34:40;;;;;;;11.13;8.40;;;;;;;18.65;62.75;100248.63;4148125;28;20096;-60
2023/06/09 03:36:44;;;;;;;11.38;9.25;;;;;;;18.64;62.39;100246.03;4148601;28;20037;-60
2023/06/09 03:38:48;;;;;;;11.25;8.10;;;;;;;18.68;62.80;100250.31;4164965;28;20124;-60
2023/06/09 03:40:51;;;;;;;10.95;8.02;;;;;;;18.66;63.04;100247.72;4166076;28;20072;-61
2023/06/09 03:42:56;;;;;;;13.55;9.10;;;;;;;18.68;62.52;100252.94;4148333;28;20050;-60
2023/06/09 03:44:59;;;;;;;13.80;10.13;;;;;;;18.67;62.64;100251.22;4148352;28;20050;-60
2023/06/09 03:47:06;;;;;;;12.50;9.25;;;;;;;18.63;62.41;100252.19;4148454;28;20053;-60
2023/06/09 03:49:09;;;;;;;9.70;7.90;;;;;;;18.64;62.47;100251.28;4148414;28;20038;-60
2023/06/09 03:51:12;;;;;;;10.30;8.57;;;;;;;18.65;62.46;100250.41;4148337;28;20046;-60
2023/06/09 03:53:17;;;;;;;13.45;8.60;;;;;;;18.66;62.94;100249.47;4164619;28;20049;-60
2023/06/09 03:55:24;;;;;;;10.38;8.93;;;;;;;18.69;62.85;100253.81;4165662;28;20205;-60
2023/06/09 03:57:30;;;;;;;9.60;7.88;;;;;;;18.71;62.71;100252.88;4131994;28;20108;-60
2023/06/09 03:59:33;;;;;;;13.05;9.48;;;;;;;18.73;62.38;100245.81;4148203;28;20073;-60
2023/06/09 04:01:36;;;;;;;10.27;8.82;;;;;;;18.72;62.89;100244.09;4165976;28;20041;-60
2023/06/09 04:03:39;;;;;;;10.45;8.52;;;;;;;18.73;62.69;100248.44;4165627;28;20065;-60
2023/06/09 04:05:42;;;;;;;11.80;9.10;;;;;;;18.75;62.58;100243.13;4165550;28;20454;-60
2023/06/09 04:07:45;;;;;;;11.10;9.27;;;;;;;18.76;62.13;100245.75;4148106;28;20042;-60
2023/06/09 04:09:48;;;;;;;12.82;10.15;;;;;;;18.82;61.58;100250.88;4164396;28;20512;-60
2023/06/09 04:11:52;;;;;;;14.32;9.23;;;;;;;18.83;61.81;100249.09;4148098;28;20096;-61
2023/06/09 04:13:55;;;;;;;13.27;9.55;;;;;;;18.83;61.33;100252.59;4147656;28;20053;-60
2023/06/09 04:15:58;;;;;;;12.38;9.52;;;;;;;18.82;61.33;100248.25;4164393;28;20037;-61
2023/06/09 04:18:03;;;;;;;12.02;8.70;;;;;;;18.82;61.27;100250.88;4147998;28;20352;-60
2023/06/09 04:20:10;;;;;;;11.77;8.88;;;;;;;18.86;61.39;100256.06;4147989;28;20406;-60
2023/06/09 04:22:15;;;;;;;12.70;9.10;;;;;;;18.87;61.43;100253.44;4146867;28;20046;-60
2023/06/09 04:24:19;;;;;;;13.18;8.88;;;;;;;18.84;61.87;100251.69;4165077;28;20045;-60
2023/06/09 04:26:25;;;;;;;12.23;8.10;;;;;;;18.84;61.92;100251.69;4164263;28;20511;-60
2023/06/09 04:28:30;;;;;;;;;;;;;;;18.75;63.13;100257.19;4148242;28;20046;-60
2023/06/09 04:30:34;;;;;;;10.20;8.80;;;;;;;18.80;62.35;100257.94;4164071;28;19925;-60
2023/06/09 04:32:40;;;;;;;9.60;7.10;;;;;;;18.86;62.43;100256.06;4164116;28;20526;-61
2023/06/09 04:34:46;;;;;;;14.13;10.45;;;;;;;18.93;62.23;100258.53;4164978;28;20556;-60
2023/06/09 04:36:52;;;;;;;12.32;11.02;;;;;;;19.01;62.01;100264.50;4164131;28;20045;-60
2023/06/09 04:38:57;;;;;;;17.52;10.27;;;;;;;19.06;61.06;100253.00;4147695;28;20053;-60
2023/06/09 04:41:03;;;;;;;11.90;10.63;;;;;;;19.08;61.67;100262.56;4147646;28;20430;-60
2023/06/09 04:43:09;;;;;;;14.38;11.75;;;;;;;19.18;60.97;100268.50;4147479;28;20447;-60
2023/06/09 04:45:17;;;;;;;15.05;12.43;;;;;;;19.17;60.76;100264.13;4147362;28;20574;-60
2023/06/09 04:47:20;;;;;;;18.50;10.23;;;;;;;19.19;60.92;100264.97;4147573;28;20042;-60
2023/06/09 04:49:23;;;;;;;17.95;10.73;;;;;;;19.17;60.91;100257.09;4147491;28;20050;-60
2023/06/09 04:51:27;;;;;;;14.05;11.10;;;;;;;19.30;60.70;100260.31;4147405;28;20511;-60
2023/06/09 04:53:31;;;;;;;10.77;8.82;;;;;;;19.18;60.96;100253.53;4157924;23;20049;-67
2023/06/09 04:55:35;;;;;;;11.95;10.15;;;;;;;19.18;60.54;100258.81;4130559;28;20041;-67
2023/06/09 04:57:40;;;;;;;10.55;8.75;;;;;;;19.24;60.90;100256.94;4147420;28;20340;-67
2023/06/09 04:59:45;;;;;;;9.82;8.77;;;;;;;19.26;60.90;100260.41;4147398;28;20140;-67
2023/06/09 05:01:52;;;;;;;13.60;10.55;;;;;;;19.31;60.48;100261.16;4131162;28;20077;-67
2023/06/09 05:03:56;;;;;;;12.55;10.35;;;;;;;19.33;60.92;100259.34;4146987;28;20570;-67
2023/06/09 05:05:59;;;;;;;11.63;9.90;;;;;;;19.33;60.47;100262.84;4131263;28;20141;-68
2023/06/09 05:08:05;;;;;;;12.68;10.90;;;;;;;19.43;60.24;100268.75;4131077;28;20112;-67
2023/06/09 05:10:09;;;;;;;14.52;11.95;;;;;;;19.53;60.05;100270.22;4147211;28;20112;-67
2023/06/09 05:12:12;;;;;;;12.88;11.43;;;;;;;19.56;60.16;100273.72;4130850;28;20041;-67
2023/06/09 05:14:16;;;;;;;14.02;12.18;;;;;;;19.67;59.43;100271.66;4146817;28;20057;-67
2023/06/09 05:16:21;;;;;;;17.45;12.43;;;;;;;19.62;59.92;100277.03;4130902;28;20073;-67
2023/06/09 05:18:26;;;;;;;13.10;11.73;;;;;;;19.58;60.00;100274.53;4147135;28;20073;-67
2023/06/09 05:20:29;;;;;;;16.83;12.30;;;;;;;19.67;59.49;100280.44;4130832;28;20129;-67
2023/06/09 05:22:32;;;;;;;16.75;10.60;;;;;;;19.66;59.86;100276.06;4147031;28;20034;-67
2023/06/09 05:24:35;;;;;;;12.63;9.85;;;;;;;19.68;59.69;100279.53;4146727;28;20034;-67
2023/06/09 05:26:38;;;;;;;13.63;10.88;;;;;;;19.78;59.53;100274.91;4130695;28;20046;-67
2023/06/09 05:28:41;;;;;;;17.48;12.15;;;;;;;20.00;58.82;100274.31;4146963;28;20408;-67
2023/06/09 05:30:45;;;;;;;12.07;9.88;;;;;;;19.83;59.28;100280.94;4130553;28;20535;-67
2023/06/09 05:32:49;;;;;;;16.88;12.85;;;;;;;19.92;58.80;100284.19;4130424;28;20500;-67
2023/06/09 05:34:53;;;;;;;25.75;12.63;;;;;;;19.98;59.07;100276.16;4147997;28;20044;-67
2023/06/09 05:36:56;;;;;;;18.75;13.13;;;;;;;19.98;58.59;100286.69;4146793;28;20129;-67
2023/06/09 05:39:00;;;;;;;18.70;13.15;;;;;;;20.02;58.54;100277.78;4130647;28;20046;-67
2023/06/09 05:41:03;;;;;;;17.00;11.68;;;;;;;20.02;58.99;100281.28;4147931;28;20034;-67
2023/06/09 05:43:05;;;;;;;18.42;13.27;;;;;;;20.11;58.68;100277.53;4146873;28;20073;-67
2023/06/09 05:45:09;;;;;;;13.20;11.20;;;;;;;20.19;57.96;100282.56;4147648;28;20136;-67
2023/06/09 05:47:12;;;;;;;15.33;11.43;;;;;;;20.08;58.77;100284.66;4130434;28;20077;-67
2023/06/09 05:49:16;;;;;;;16.08;11.88;;;;;;;20.18;58.34;100291.41;4147826;28;20289;-67
2023/06/09 05:51:20;;;;;;;18.77;11.18;;;;;;;20.22;58.47;100285.13;4130325;28;20047;-67
2023/06/09 05:53:23;;;;;;;10.23;8.90;;;;;;;20.16;58.35;100290.59;4130090;28;20084;-67
2023/06/09 05:55:26;;;;;;;13.88;11.05;;;;;;;20.31;58.22;100297.19;4147548;28;20073;-67
2023/06/09 05:57:29;;;;;;;12.93;8.48;;;;;;;20.32;58.17;100297.16;4147845;28;20049;-67
2023/06/09 05:59:34;;;;;;;16.35;10.05;;;;;;;20.43;58.23;100296.88;4146640;28;20080;-67
2023/06/09 06:01:37;;;;;;;14.27;8.55;;;;;;;20.51;57.56;100292.19;4146519;28;20080;-68
2023/06/09 06:03:41;;;;;;;14.32;10.70;;;;;;;20.64;57.14;100284.78;4147665;28;20093;-67
2023/06/09 06:05:45;;;;;;;14.80;8.65;;;;;;;20.71;56.34;100283.72;4147767;28;20049;-67
2023/06/09 06:07:49;;;;;;;13.70;9.77;;;;;;;20.73;56.22;100288.94;4130455;28;20089;-67
2023/06/09 06:09:52;;;;;;;15.07;8.77;;;;;;;20.73;55.65;100275.75;4130174;28;20053;-66
2023/06/09 06:11:55;;;;;;;9.48;8.23;;;;;;;20.73;55.42;100286.31;4130072;28;20039;-66
2023/06/09 06:13:58;;;;;;;12.15;7.68;;;;;;;20.78;55.21;100280.88;4146189;28;20066;-67
2023/06/09 06:16:01;;;;;;;11.80;8.07;;;;;;;20.89;54.83;100281.41;4130199;28;20138;-66
2023/06/09 06:18:04;;;;;;;14.20;8.48;;;;;;;20.96;54.76;100287.38;4147647;28;20038;-66
2023/06/09 06:20:08;;;;;;;12.18;8.40;;;;;;;21.03;54.63;100288.91;4130173;28;20038;-66
2023/06/09 06:22:11;;;;;;;13.18;9.10;;;;;;;21.08;53.89;100286.97;4130227;28;20046;-67
2023/06/09 06:24:15;;;;;;;12.32;8.23;;;;;;;21.10;54.08;100285.16;4147247;28;20066;-67
2023/06/09 06:26:18;;;;;;;9.43;7.47;;;;;;;21.11;54.29;100278.94;4147645;28;20046;-66
2023/06/09 06:28:21;;;;;;;9.40;7.25;;;;;;;21.17;54.38;100286.66;4147533;28;20046;-67
2023/06/09 06:30:25;;;;;;;13.55;9.10;;;;;;;21.30;53.41;100283.63;4147477;28;20053;-66
2023/06/09 06:32:28;;;;;;;9.70;7.47;;;;;;;21.32;53.26;100280.03;4147483;28;20538;-67
2023/06/09 06:34:31;;;;;;;11.82;6.40;;;;;;;21.35;53.58;100289.63;4129844;28;20482;-67
2023/06/09 06:36:33;;;;;;;11.27;8.07;;;;;;;21.52;53.02;100292.59;4147402;28;20045;-67
2023/06/09 06:38:36;;;;;;;11.88;8.18;;;;;;;21.73;51.53;100300.75;4147493;28;20053;-67
2023/06/09 06:40:42;;;;;;;10.18;7.28;;;;;;;21.58;52.42;100299.47;4146258;28;20044;-66
2023/06/09 06:42:45;;;;;;;8.82;6.28;;;;;;;21.56;52.85;100296.03;4147479;28;20040;-66
2023/06/09 06:44:57;;;;;;;7.88;5.72;;;;;;;21.66;53.09;100291.28;4146037;28;20042;-67
2023/06/09 06:47:00;;;;;;;11.60;6.28;;;;;;;21.82;52.93;100295.13;4133203;28;20064;-66
2023/06/09 06:49:03;;;;;;;7.32;6.00;;;;;;;21.95;52.23;100290.25;4150515;28;20046;-66
2023/06/09 06:51:07;;;;;;;8.07;5.65;;;;;;;22.09;52.25;100289.75;4133002;28;20044;-66
2023/06/09 06:53:10;;;;;;;11.82;7.28;;;;;;;22.28;50.77;100293.47;4150387;28;20136;-66
2023/06/09 06:55:13;;;;;;;10.88;7.20;;;;;;;22.28;50.34;100296.13;4150040;28;20064;-66
2023/06/09 06:57:17;;;;;;;14.52;6.88;;;;;;;22.22;50.58;100292.81;4150435;28;20574;-65
2023/06/09 06:59:20;;;;;;;7.38;5.70;;;;;;;22.27;50.75;100293.53;4150365;28;20056;-66
2023/06/09 07:01:24;;;;;;;8.88;7.10;;;;;;;22.43;50.21;100296.50;4150357;28;20044;-66
2023/06/09 07:03:27;;;;;;;;;;;;;;;22.29;50.56;100292.53;4133202;28;20042;-66
2023/06/09 07:05:30;;;;;;;11.18;7.30;;;;;;;22.42;50.51;100300.91;4148877;28;19926;-66
2023/06/09 07:07:33;;;;;;;22.30;7.78;;;;;;;22.58;49.46;100295.91;4150394;28;20495;-66
2023/06/09 07:09:37;;;;;;;7.85;6.07;;;;;;;22.54;49.38;100298.72;4132699;28;20150;-66
2023/06/09 07:11:43;;;;;;;11.00;6.20;;;;;;;22.55;49.87;100297.81;4150101;28;20063;-66
2023/06/09 07:13:48;;;;;;;8.00;6.63;;;;;;;22.74;49.65;100297.97;4132440;28;20053;-66
2023/06/09 07:15:50;;;;;;;11.82;6.70;;;;;;;22.83;49.78;100300.25;4150112;28;20045;-67
2023/06/09 07:17:53;;;;;;;8.75;5.68;;;;;;;22.88;48.93;100298.28;4150125;28;20077;-65
2023/06/09 07:19:57;;;;;;;9.40;6.43;;;;;;;23.08;47.87;100294.81;4149993;28;20042;-67
2023/06/09 07:21:59;;;;;;;9.32;6.90;;;;;;;23.14;47.55;100299.06;4149904;28;20506;-65
2023/06/09 07:24:04;;;;;;;12.18;6.35;;;;;;;22.99;48.08;100300.50;4149563;28;20042;-65
2023/06/09 07:26:06;;;;;;;;;;;;;;;22.83;48.60;100301.09;4150369;28;20096;-65
2023/06/09 07:28:09;;;;;;;10.57;5.95;;;;;;;22.99;48.67;100304.00;4149932;28;19928;-66
2023/06/09 07:30:14;;;;;;;8.18;6.07;;;;;;;23.08;48.86;100316.03;4149891;28;20498;-65
2023/06/09 07:32:17;;;;;;;7.13;6.28;;;;;;;23.28;47.01;100311.75;4149731;28;20392;-66
2023/06/09 07:34:20;;;;;;;6.40;4.95;;;;;;;23.08;47.37;100316.03;4149500;28;20376;-67
2023/06/09 07:36:24;;;;;;;9.05;5.95;;;;;;;23.13;47.97;100319.41;4149760;28;20045;-66
2023/06/09 07:38:27;;;;;;;9.00;6.03;;;;;;;23.23;47.67;100317.25;4148523;28;20038;-67
2023/06/09 07:40:30;;;;;;;7.85;5.80;;;;;;;23.28;48.11;100325.03;4149817;28;20121;-66
2023/06/09 07:42:34;;;;;;;9.48;5.65;;;;;;;23.37;47.25;100316.69;4149676;28;20034;-66
2023/06/09 07:44:37;;;;;;;8.63;5.28;;;;;;;23.35;47.90;100327.34;4131851;28;20038;-67
2023/06/09 07:46:42;;;;;;;7.72;5.63;;;;;;;23.42;47.88;100313.81;4147884;28;20036;-67
2023/06/09 07:48:45;;;;;;;7.88;4.60;;;;;;;23.56;47.75;100322.06;4142338;28;20037;-66
2023/06/09 07:50:47;;;;;;;5.70;5.00;;;;;;;23.66;47.54;100317.25;4133256;28;20502;-66
2023/06/09 07:53:03;;;;;;;8.48;5.53;;;;;;;23.91;46.61;100316.22;4140635;28;20026;-66
2023/06/09 07:55:07;;;;;;;9.30;6.18;;;;;;;24.02;45.29;100313.94;4138042;28;20069;-66
2023/06/09 07:57:17;;;;;;;7.22;5.45;;;;;;;23.97;45.83;100311.50;4146984;28;20088;-66
2023/06/09 07:59:20;;;;;;;8.10;5.95;;;;;;;24.01;44.73;100318.41;4145264;28;20096;-66
2023/06/09 08:01:23;;;;;;;6.28;4.47;;;;;;;24.03;45.15;100316.56;4149324;28;20056;-67
2023/06/09 08:03:29;;;;;;;6.50;5.03;;;;;;;24.10;45.09;100303.00;4131362;28;20058;-67
2023/06/09 08:05:32;;;;;;;5.68;4.20;;;;;;;24.09;45.30;100310.09;4147734;28;20056;-67
2023/06/09 08:07:39;;;;;;;9.57;4.78;;;;;;;24.10;45.13;100311.81;4131855;28;20057;-67
2023/06/09 08:09:43;;;;;;;7.78;5.25;;;;;;;24.22;45.19;100316.59;4148784;28;20089;-67
2023/06/09 08:11:45;;;;;;;12.77;5.28;;;;;;;24.49;44.38;100312.75;4148024;28;20463;-67
2023/06/09 08:13:48;;;;;;;7.57;4.78;;;;;;;24.30;44.12;100310.94;4134514;28;20042;-67
2023/06/09 08:15:51;;;;;;;6.50;4.88;;;;;;;24.29;44.13;100301.22;4132931;28;20488;-67
2023/06/09 08:17:55;;;;;;;7.57;4.63;;;;;;;24.32;43.96;100309.06;4124597;28;20085;-66
2023/06/09 08:19:59;;;;;;;10.20;5.35;;;;;;;24.33;43.73;100307.28;4132957;28;20038;-67
2023/06/09 08:22:02;;;;;;;;;;;;;;;24.40;43.71;100306.91;4141027;28;20042;-66
2023/06/09 08:24:05;;;;;;;7.97;5.45;;;;;;;24.62;44.09;100307.75;4148424;28;20020;-67
2023/06/09 08:26:08;;;;;;;7.32;4.88;;;;;;;24.64;44.43;100298.78;4148963;28;20464;-67
2023/06/09 08:28:11;;;;;;;9.65;5.10;;;;;;;24.66;45.26;100304.00;4131651;28;20109;-68
2023/06/09 08:30:14;;;;;;;8.30;5.20;;;;;;;24.71;45.22;100302.88;4131213;28;20042;-67
2023/06/09 08:32:17;;;;;;;9.43;5.25;;;;;;;24.97;43.06;100299.88;4149064;28;20048;-67
2023/06/09 08:34:20;;;;;;;7.85;5.50;;;;;;;25.00;42.42;100302.38;4148451;28;20033;-67
2023/06/09 08:36:24;;;;;;;8.10;5.00;;;;;;;24.84;42.64;100284.53;4148798;28;20137;-68
2023/06/09 08:38:27;;;;;;;6.82;4.68;;;;;;;24.85;43.26;100291.59;4131133;28;20065;-68
2023/06/09 08:40:30;;;;;;;8.40;4.95;;;;;;;24.98;43.98;100289.16;4147672;28;20445;-68
2023/06/09 08:42:33;;;;;;;9.30;5.18;;;;;;;25.06;43.47;100289.66;4148700;28;20045;-67
2023/06/09 08:44:40;;;;;;;6.07;4.60;;;;;;;25.21;42.32;100285.38;4147945;28;20045;-67
2023/06/09 08:46:47;;;;;;;9.10;5.15;;;;;;;25.24;41.76;100276.41;4115192;28;20416;-67
2023/06/09 08:48:52;;;;;;;6.05;4.38;;;;;;;25.16;42.70;100282.09;4132546;28;20046;-67
2023/06/09 08:50:56;;;;;;;7.30;5.03;;;;;;;25.25;42.20;100270.16;4115235;28;20038;-67
2023/06/09 08:53:01;;;;;;;5.40;4.60;;;;;;;25.23;43.07;100272.00;4114886;28;20074;-68
2023/06/09 08:55:04;;;;;;;8.13;5.00;;;;;;;25.29;42.70;100271.72;4114538;28;20133;-67
2023/06/09 08:57:09;;;;;;;6.50;4.43;;;;;;;25.36;42.34;100266.97;4132316;28;20088;-67
2023/06/09 08:59:13;;;;;;;5.10;4.10;;;;;;;25.50;41.06;100275.09;4114997;28;20098;-68
2023/06/09 09:01:17;;;;;;;5.35;4.15;;;;;;;25.59;41.09;100274.63;4145007;28;20407;-67
2023/06/09 09:03:20;;;;;;;6.68;4.35;;;;;;;25.59;40.56;100276.44;4130795;28;20526;-67
2023/06/09 09:05:23;;;;;;;6.43;4.63;;;;;;;25.69;41.21;100276.84;4148145;28;20100;-67
2023/06/09 09:07:26;;;;;;;6.55;3.95;;;;;;;25.72;40.93;100277.53;4130643;28;20054;-68
2023/06/09 09:09:30;;;;;;;5.95;4.20;;;;;;;25.68;41.38;100269.78;4130645;28;20102;-68
2023/06/09 09:11:33;;;;;;;6.32;4.22;;;;;;;25.85;41.85;100272.41;4130981;28;20372;-67
2023/06/09 09:13:36;;;;;;;5.07;3.88;;;;;;;25.92;40.57;100270.31;4147044;28;20042;-67
2023/06/09 09:15:49;;;;;;;6.53;3.90;;;;;;;25.88;41.07;100274.91;4130572;28;20050;-67
2023/06/09 09:17:52;;;;;;;5.40;4.20;;;;;;;26.06;41.58;100267.78;4148201;28;20133;-68
2023/06/09 09:19:55;;;;;;;6.18;4.57;;;;;;;26.17;40.69;100269.88;4114558;28;20053;-68
2023/06/09 09:22:06;;;;;;;5.45;4.50;;;;;;;26.23;41.00;100268.69;4148254;28;20050;-66
2023/06/09 09:24:12;;;;;;;6.40;4.65;;;;;;;26.30;39.94;100267.41;4147852;28;20067;-66
2023/06/09 09:26:26;;;;;;;6.80;4.53;;;;;;;26.27;39.75;100267.59;4148236;28;20041;-67
2023/06/09 09:28:39;;;;;;;6.00;4.20;;;;;;;26.25;39.76;100266.78;4148168;28;20535;-67
2023/06/09 09:30:44;;;;;;;9.95;4.00;;;;;;;26.41;40.04;100272.16;4148136;28;20040;-67
2023/06/09 09:32:48;;;;;;;5.28;3.63;;;;;;;26.58;39.06;100271.22;4148130;28;20061;-67
2023/06/09 09:34:52;;;;;;;5.85;4.22;;;;;;;26.60;38.79;100261.31;4147593;28;20092;-67